createdAt,value
2019-04-14T00:00:49.506Z,18.90
2019-04-14T00:01:48.128Z,18.89
2019-04-14T00:02:49.157Z,18.89
2019-04-14T00:03:48.231Z,18.90
2019-04-14T00:05:49.590Z,18.90
2019-04-14T00:06:48.632Z,19.05
2019-04-14T00:07:49.450Z,18.91
2019-04-14T00:08:48.340Z,18.87
2019-04-14T00:09:48.420Z,18.99
2019-04-14T00:10:48.665Z,18.96
2019-04-14T00:11:48.479Z,18.90
2019-04-14T00:12:49.253Z,18.79
2019-04-14T00:14:49.139Z,18.93
2019-04-14T00:15:51.593Z,18.86
2019-04-14T00:16:49.007Z,18.94
2019-04-14T00:17:48.665Z,18.83
2019-04-14T00:18:49.076Z,18.84
2019-04-14T00:19:48.720Z,18.82
2019-04-14T00:20:49.152Z,18.91
2019-04-14T00:21:50.067Z,18.87
2019-04-14T00:22:49.099Z,18.96
2019-04-14T00:23:50.087Z,18.87
2019-04-14T00:24:49.001Z,18.91
2019-04-14T00:25:50.031Z,18.84
2019-04-14T00:26:49.006Z,18.91
2019-04-14T00:27:50.013Z,18.87
2019-04-14T00:28:49.400Z,18.84
2019-04-14T00:29:50.098Z,18.86
2019-04-14T00:31:51.086Z,18.89
2019-04-14T00:32:49.134Z,18.87
2019-04-14T00:33:49.889Z,18.87
2019-04-14T00:34:49.140Z,18.91
2019-04-14T00:35:49.683Z,18.87
2019-04-14T00:36:50.195Z,18.79
2019-04-14T00:37:49.265Z,18.76
2019-04-14T00:38:50.015Z,18.86
2019-04-14T00:39:49.323Z,18.84
2019-04-14T00:41:54.060Z,18.79
2019-04-14T00:42:49.731Z,18.90
2019-04-14T00:43:50.549Z,18.78
2019-04-14T00:44:49.651Z,18.82
2019-04-14T00:45:53.646Z,18.79
2019-04-14T00:46:49.651Z,18.76
2019-04-14T00:47:58.981Z,18.79
2019-04-14T00:48:49.838Z,18.76
2019-04-14T00:49:50.900Z,18.86
2019-04-14T00:50:49.667Z,18.82
2019-04-14T00:51:50.708Z,18.75
2019-04-14T00:52:50.136Z,18.82
2019-04-14T00:53:49.758Z,18.75
2019-04-14T00:54:50.088Z,18.83
2019-04-14T00:55:51.044Z,18.86
2019-04-14T00:56:50.095Z,18.79
2019-04-14T00:57:50.908Z,18.74
2019-04-14T00:58:49.898Z,18.78
2019-04-14T00:59:50.868Z,18.78
2019-04-14T01:00:50.202Z,18.74
2019-04-14T01:01:50.490Z,18.75
2019-04-14T01:02:49.971Z,18.72
2019-04-14T01:03:50.551Z,18.71
2019-04-14T01:04:51.295Z,18.71
2019-04-14T01:05:50.391Z,18.74
2019-04-14T01:06:51.164Z,18.68
2019-04-14T01:07:50.175Z,18.71
2019-04-14T01:08:51.150Z,18.71
2019-04-14T01:09:51.023Z,18.75
2019-04-14T01:10:51.873Z,18.76
2019-04-14T01:11:51.002Z,18.74
2019-04-14T01:12:50.272Z,18.74
2019-04-14T01:13:50.847Z,18.71
2019-04-14T01:14:51.669Z,18.69
2019-04-14T01:15:58.779Z,18.64
2019-04-14T01:16:51.618Z,18.65
2019-04-14T01:17:50.748Z,18.66
2019-04-14T01:18:51.561Z,18.74
2019-04-14T01:19:50.661Z,18.64
2019-04-14T01:20:51.427Z,18.64
2019-04-14T01:21:50.546Z,18.59
2019-04-14T01:22:50.980Z,18.71
2019-04-14T01:23:50.652Z,18.66
2019-04-14T01:24:51.099Z,18.68
2019-04-14T01:25:50.670Z,18.64
2019-04-14T01:26:50.769Z,18.62
2019-04-14T01:27:51.737Z,18.68
2019-04-14T01:28:50.803Z,18.64
2019-04-14T01:29:51.644Z,18.69
2019-04-14T01:30:52.203Z,18.57
2019-04-14T01:31:51.529Z,18.60
2019-04-14T01:32:52.117Z,18.56
2019-04-14T01:33:51.212Z,18.66
2019-04-14T01:34:52.757Z,18.65
2019-04-14T01:35:51.054Z,18.66
2019-04-14T01:36:51.837Z,18.62
2019-04-14T01:37:51.029Z,18.60
2019-04-14T01:38:51.359Z,18.57
2019-04-14T01:39:52.396Z,18.56
2019-04-14T01:40:51.166Z,18.62
2019-04-14T01:41:52.104Z,18.69
2019-04-14T01:42:52.677Z,18.56
2019-04-14T01:44:52.423Z,18.59
2019-04-14T01:46:03.889Z,18.65
2019-04-14T01:46:52.096Z,18.56
2019-04-14T01:47:51.377Z,18.59
2019-04-14T01:48:51.893Z,18.64
2019-04-14T01:49:52.968Z,18.57
2019-04-14T01:50:51.660Z,18.56
2019-04-14T01:51:52.752Z,18.59
2019-04-14T01:52:52.301Z,18.59
2019-04-14T01:53:51.516Z,18.62
2019-04-14T01:54:51.588Z,18.62
2019-04-14T01:55:52.684Z,18.62
2019-04-14T01:56:51.894Z,18.62
2019-04-14T01:57:52.467Z,18.59
2019-04-14T01:58:51.708Z,18.60
2019-04-14T01:59:52.537Z,18.62
2019-04-14T02:00:52.997Z,18.60
2019-04-14T02:01:52.079Z,18.59
2019-04-14T02:02:52.966Z,18.57
2019-04-14T02:03:52.165Z,18.62
2019-04-14T02:04:52.905Z,18.51
2019-04-14T02:05:51.919Z,18.60
2019-04-14T02:06:52.740Z,18.62
2019-04-14T02:07:53.646Z,18.65
2019-04-14T02:08:52.265Z,18.49
2019-04-14T02:09:53.188Z,18.51
2019-04-14T02:10:52.323Z,18.59
2019-04-14T02:11:53.086Z,18.57
2019-04-14T02:12:52.085Z,18.62
2019-04-14T02:13:52.892Z,18.51
2019-04-14T02:14:52.141Z,18.51
2019-04-14T02:15:52.876Z,18.59
2019-04-14T02:16:56.084Z,18.50
2019-04-14T02:17:52.579Z,18.62
2019-04-14T02:18:53.567Z,18.62
2019-04-14T02:19:52.461Z,18.53
2019-04-14T02:20:53.492Z,18.49
2019-04-14T02:21:52.416Z,18.54
2019-04-14T02:22:53.163Z,18.62
2019-04-14T02:23:52.470Z,18.53
2019-04-14T02:24:52.946Z,18.46
2019-04-14T02:25:53.533Z,18.53
2019-04-14T02:26:52.670Z,18.57
2019-04-14T02:27:53.661Z,18.50
2019-04-14T02:28:53.328Z,18.49
2019-04-14T02:29:53.829Z,18.56
2019-04-14T02:31:03.251Z,18.57
2019-04-14T02:33:15.137Z,18.49
2019-04-14T02:33:23.953Z,18.59
2019-04-14T02:34:25.929Z,18.50
2019-04-14T02:35:21.103Z,18.50
2019-04-14T02:36:41.861Z,18.53
2019-04-14T02:37:23.772Z,18.47
2019-04-14T02:38:36.023Z,18.47
2019-04-14T02:39:21.788Z,18.47
2019-04-14T02:40:36.443Z,18.56
2019-04-14T02:42:26.214Z,18.51
2019-04-14T02:43:23.786Z,18.53
2019-04-14T02:46:25.659Z,18.49
2019-04-14T02:48:36.064Z,18.44
2019-04-14T02:49:18.774Z,18.47
2019-04-14T02:50:17.218Z,18.54
2019-04-14T02:51:21.119Z,18.51
2019-04-14T02:52:20.682Z,18.54
2019-04-14T02:54:34.111Z,18.53
2019-04-14T02:55:15.234Z,18.54
2019-04-14T02:56:25.448Z,18.51
2019-04-14T02:58:30.485Z,18.49
2019-04-14T02:59:35.957Z,18.44
2019-04-14T03:01:23.106Z,18.51
2019-04-14T03:03:21.639Z,18.46
2019-04-14T03:04:23.352Z,18.46
2019-04-14T03:05:16.378Z,18.44
2019-04-14T03:06:17.780Z,18.46
2019-04-14T03:07:23.044Z,18.47
2019-04-14T03:09:30.152Z,18.42
2019-04-14T03:10:31.850Z,18.42
2019-04-14T03:11:20.587Z,18.50
2019-04-14T03:12:27.433Z,18.46
2019-04-14T03:14:23.068Z,18.53
2019-04-14T03:15:43.887Z,18.49
2019-04-14T03:16:22.874Z,18.47
2019-04-14T03:19:29.822Z,18.47
2019-04-14T03:20:24.384Z,18.46
2019-04-14T03:21:29.907Z,18.50
2019-04-14T03:22:33.081Z,18.50
2019-04-14T03:23:23.885Z,18.49
2019-04-14T03:24:18.506Z,18.50
2019-04-14T03:25:11.501Z,18.47
2019-04-14T03:26:21.303Z,18.51
2019-04-14T03:27:22.832Z,18.47
2019-04-14T03:28:24.568Z,18.50
2019-04-14T03:29:21.198Z,18.46
2019-04-14T03:30:51.721Z,18.53
2019-04-14T03:31:46.804Z,18.50
2019-04-14T03:32:39.124Z,18.42
2019-04-14T03:33:55.754Z,18.49
2019-04-14T03:37:16.208Z,18.49
2019-04-14T03:38:26.098Z,18.42
2019-04-14T03:39:27.333Z,18.44
2019-04-14T03:40:27.623Z,18.49
2019-04-14T03:41:25.786Z,18.39
2019-04-14T03:45:30.036Z,18.39
2019-04-14T03:46:25.357Z,18.47
2019-04-14T03:47:19.993Z,18.39
2019-04-14T03:48:42.827Z,18.44
2019-04-14T03:49:24.597Z,18.39
2019-04-14T03:52:26.284Z,18.47
2019-04-14T03:54:15.443Z,18.42
2019-04-14T03:55:12.941Z,18.47
2019-04-14T03:56:00.664Z,18.38
2019-04-14T03:56:55.799Z,18.41
2019-04-14T03:57:56.340Z,18.47
2019-04-14T03:58:55.446Z,18.39
2019-04-14T03:59:56.367Z,18.47
2019-04-14T04:00:55.446Z,18.38
2019-04-14T04:01:56.555Z,18.39
2019-04-14T04:02:55.499Z,18.44
2019-04-14T04:03:56.436Z,18.44
2019-04-14T04:04:55.603Z,18.41
2019-04-14T04:05:56.427Z,18.42
2019-04-14T04:06:55.864Z,18.42
2019-04-14T04:07:56.038Z,18.39
2019-04-14T04:08:55.622Z,18.38
2019-04-14T04:09:56.214Z,18.46
2019-04-14T04:10:55.735Z,18.44
2019-04-14T04:11:56.357Z,18.44
2019-04-14T04:12:55.745Z,18.36
2019-04-14T04:13:56.400Z,18.41
2019-04-14T04:14:55.817Z,18.41
2019-04-14T04:15:56.200Z,18.36
2019-04-14T04:16:55.826Z,18.47
2019-04-14T04:19:02.709Z,18.42
2019-04-14T04:19:55.916Z,18.46
2019-04-14T04:20:56.647Z,18.47
2019-04-14T04:21:55.966Z,18.41
2019-04-14T04:22:56.550Z,18.42
2019-04-14T04:23:57.498Z,18.42
2019-04-14T04:24:56.470Z,18.42
2019-04-14T04:25:57.060Z,18.42
2019-04-14T04:26:56.166Z,18.49
2019-04-14T04:27:56.915Z,18.44
2019-04-14T04:28:56.339Z,18.41
2019-04-14T04:29:57.024Z,18.41
2019-04-14T04:30:56.230Z,18.47
2019-04-14T04:31:56.873Z,18.41
2019-04-14T04:32:56.338Z,18.39
2019-04-14T04:33:56.558Z,18.44
2019-04-14T04:34:57.697Z,18.39
2019-04-14T04:35:56.552Z,18.41
2019-04-14T04:36:57.496Z,18.41
2019-04-14T04:37:56.446Z,18.44
2019-04-14T04:38:57.433Z,18.44
2019-04-14T04:39:56.553Z,18.42
2019-04-14T04:40:57.197Z,18.44
2019-04-14T04:41:57.915Z,18.41
2019-04-14T04:42:56.932Z,18.39
2019-04-14T04:44:57.481Z,18.44
2019-04-14T04:45:56.733Z,18.38
2019-04-14T04:46:56.972Z,18.47
2019-04-14T04:47:57.734Z,18.39
2019-04-14T04:49:07.243Z,18.38
2019-04-14T04:49:57.567Z,18.38
2019-04-14T04:51:57.272Z,18.36
2019-04-14T04:52:56.896Z,18.39
2019-04-14T04:53:57.075Z,18.47
2019-04-14T04:54:58.074Z,18.41
2019-04-14T04:55:57.342Z,18.36
2019-04-14T04:56:58.024Z,18.41
2019-04-14T04:57:57.089Z,18.46
2019-04-14T04:58:57.119Z,18.41
2019-04-14T04:59:58.088Z,18.41
2019-04-14T05:00:57.709Z,18.44
2019-04-14T05:01:58.043Z,18.39
2019-04-14T05:02:57.505Z,18.39
2019-04-14T05:03:57.925Z,18.36
2019-04-14T05:04:57.304Z,18.38
2019-04-14T05:05:57.909Z,18.39
2019-04-14T05:06:57.371Z,18.42
2019-04-14T05:07:57.646Z,18.39
2019-04-14T05:08:57.669Z,18.46
2019-04-14T05:09:57.752Z,18.39
2019-04-14T05:10:57.445Z,18.39
2019-04-14T05:11:57.796Z,18.42
2019-04-14T05:12:58.610Z,18.47
2019-04-14T05:13:57.647Z,18.38
2019-04-14T05:14:58.840Z,18.39
2019-04-14T05:15:57.636Z,18.51
2019-04-14T05:16:57.761Z,18.39
2019-04-14T05:17:58.017Z,18.42
2019-04-14T05:19:11.463Z,18.47
2019-04-14T05:19:58.439Z,18.42
2019-04-14T05:20:58.107Z,18.50
2019-04-14T05:21:58.113Z,18.49
2019-04-14T05:22:57.844Z,18.49
2019-04-14T05:23:58.135Z,18.46
2019-04-14T05:25:58.196Z,18.42
2019-04-14T05:26:59.170Z,18.42
2019-04-14T05:27:58.312Z,18.47
2019-04-14T05:28:59.136Z,18.44
2019-04-14T05:29:58.096Z,18.50
2019-04-14T05:30:58.961Z,18.44
2019-04-14T05:31:58.201Z,18.42
2019-04-14T05:33:58.192Z,18.46
2019-04-14T05:34:58.721Z,18.47
2019-04-14T05:35:58.274Z,18.56
2019-04-14T05:36:58.548Z,18.47
2019-04-14T05:37:58.298Z,18.47
2019-04-14T05:38:58.369Z,18.44
2019-04-14T05:39:59.319Z,18.42
2019-04-14T05:40:58.501Z,18.51
2019-04-14T05:42:06.596Z,18.51
2019-04-14T05:42:58.399Z,18.53
2019-04-14T05:44:01.421Z,18.57
2019-04-14T05:44:58.468Z,18.53
2019-04-14T05:45:59.116Z,18.47
2019-04-14T05:46:58.524Z,18.56
2019-04-14T05:47:58.921Z,18.46
2019-04-14T05:48:59.922Z,18.51
2019-04-14T05:49:59.321Z,18.53
2019-04-14T05:50:59.767Z,18.57
2019-04-14T05:51:59.186Z,18.50
2019-04-14T05:52:59.954Z,18.47
2019-04-14T05:53:59.037Z,18.54
2019-04-14T05:55:00.005Z,18.54
2019-04-14T05:55:59.306Z,18.44
2019-04-14T05:57:00.030Z,18.50
2019-04-14T05:57:59.194Z,18.46
2019-04-14T05:59:00.048Z,18.49
2019-04-14T05:59:59.408Z,18.60
2019-04-14T06:01:00.198Z,18.62
2019-04-14T06:01:59.409Z,18.62
2019-04-14T06:02:59.527Z,18.50
2019-04-14T06:04:00.292Z,18.62
2019-04-14T06:04:59.399Z,18.64
2019-04-14T06:05:59.141Z,18.53
2019-04-14T06:06:59.146Z,18.62
2019-04-14T06:07:59.208Z,18.68
2019-04-14T06:08:59.185Z,18.62
2019-04-14T06:09:59.267Z,18.59
2019-04-14T06:10:59.285Z,18.57
2019-04-14T06:11:59.323Z,18.62
2019-04-14T06:12:59.353Z,18.57
2019-04-14T06:13:59.381Z,18.59
2019-04-14T06:14:59.411Z,18.59
2019-04-14T06:15:59.837Z,18.64
2019-04-14T06:16:59.491Z,18.69
2019-04-14T06:17:59.505Z,18.68
2019-04-14T06:18:59.485Z,18.69
2019-04-14T06:19:59.665Z,18.71
2019-04-14T06:20:59.706Z,18.65
2019-04-14T06:21:59.567Z,18.68
2019-04-14T06:22:59.961Z,18.71
2019-04-14T06:23:59.695Z,18.66
2019-04-14T06:24:59.667Z,18.62
2019-04-14T06:25:59.777Z,18.64
2019-04-14T06:26:59.783Z,18.66
2019-04-14T06:27:59.808Z,18.66
2019-04-14T06:28:59.833Z,18.65
2019-04-14T06:29:59.862Z,18.66
2019-04-14T06:30:59.853Z,18.75
2019-04-14T06:31:59.931Z,18.66
2019-04-14T06:33:00.053Z,18.72
2019-04-14T06:33:59.936Z,18.66
2019-04-14T06:34:59.968Z,18.69
2019-04-14T06:37:00.480Z,18.75
2019-04-14T06:38:00.210Z,18.75
2019-04-14T06:39:00.238Z,18.74
2019-04-14T06:40:00.327Z,18.74
2019-04-14T06:41:00.200Z,18.75
2019-04-14T06:42:00.227Z,18.82
2019-04-14T06:43:00.563Z,18.79
2019-04-14T06:44:00.296Z,18.78
2019-04-14T06:45:00.304Z,18.82
2019-04-14T06:46:00.301Z,18.79
2019-04-14T06:47:00.385Z,18.84
2019-04-14T06:48:00.524Z,18.82
2019-04-14T06:49:00.749Z,18.76
2019-04-14T06:50:00.467Z,18.74
2019-04-14T06:51:00.603Z,18.79
2019-04-14T06:52:00.649Z,18.75
2019-04-14T06:53:00.566Z,18.78
2019-04-14T06:54:00.589Z,18.86
2019-04-14T06:55:00.583Z,18.84
2019-04-14T06:56:00.599Z,18.87
2019-04-14T06:57:00.683Z,18.82
2019-04-14T06:58:00.714Z,18.89
2019-04-14T06:59:00.697Z,18.86
2019-04-14T07:00:00.782Z,18.83
2019-04-14T07:01:01.059Z,18.90
2019-04-14T07:02:01.912Z,18.87
2019-04-14T07:03:00.864Z,18.94
2019-04-14T07:04:00.898Z,18.84
2019-04-14T07:05:00.873Z,18.84
2019-04-14T07:06:00.905Z,18.86
2019-04-14T07:07:00.933Z,18.90
2019-04-14T07:08:01.317Z,18.94
2019-04-14T07:09:01.049Z,18.94
2019-04-14T07:11:01.076Z,18.84
2019-04-14T07:12:01.201Z,18.82
2019-04-14T07:13:01.170Z,18.91
2019-04-14T07:14:01.201Z,18.89
2019-04-14T07:15:01.535Z,19.06
2019-04-14T07:16:01.282Z,18.89
2019-04-14T07:18:01.338Z,18.90
2019-04-14T07:19:01.312Z,18.87
2019-04-14T07:20:02.610Z,18.86
2019-04-14T07:21:01.376Z,18.91
2019-04-14T07:22:01.707Z,18.93
2019-04-14T07:23:01.433Z,18.93
2019-04-14T07:25:01.543Z,18.99
2019-04-14T07:27:01.551Z,19.02
2019-04-14T07:28:01.577Z,19.02
2019-04-14T07:29:01.916Z,19.02
2019-04-14T07:30:01.704Z,18.99
2019-04-14T07:31:01.667Z,19.05
2019-04-14T07:32:01.759Z,18.99
2019-04-14T07:33:01.732Z,19.02
2019-04-14T07:34:01.767Z,18.99
2019-04-14T07:35:01.905Z,19.05
2019-04-14T07:36:02.176Z,19.09
2019-04-14T07:37:01.855Z,19.07
2019-04-14T07:38:01.904Z,19.10
2019-04-14T07:39:01.975Z,19.06
2019-04-14T07:41:02.076Z,19.09
2019-04-14T07:42:02.061Z,19.07
2019-04-14T07:43:02.350Z,19.10
2019-04-14T07:44:02.122Z,19.09
2019-04-14T07:45:02.202Z,19.05
2019-04-14T07:46:02.131Z,19.12
2019-04-14T07:47:02.216Z,19.06
2019-04-14T07:48:02.246Z,19.20
2019-04-14T07:49:02.223Z,19.15
2019-04-14T07:50:13.929Z,19.16
2019-04-14T07:51:02.340Z,19.21
2019-04-14T07:52:02.388Z,19.16
2019-04-14T07:53:02.402Z,19.24
2019-04-14T07:54:02.385Z,19.21
2019-04-14T07:55:02.458Z,19.21
2019-04-14T07:56:02.735Z,19.21
2019-04-14T07:59:02.534Z,19.28
2019-04-14T08:00:02.651Z,19.24
2019-04-14T08:01:02.653Z,19.28
2019-04-14T08:02:02.921Z,19.24
2019-04-14T08:03:02.669Z,19.28
2019-04-14T08:04:02.740Z,19.30
2019-04-14T08:05:02.763Z,19.30
2019-04-14T08:06:02.746Z,19.31
2019-04-14T08:07:02.800Z,19.32
2019-04-14T08:08:03.161Z,19.31
2019-04-14T08:09:02.895Z,19.34
2019-04-14T08:10:02.874Z,19.39
2019-04-14T08:11:02.908Z,19.34
2019-04-14T08:12:02.979Z,19.30
2019-04-14T08:13:02.961Z,19.42
2019-04-14T08:14:03.045Z,19.42
2019-04-14T08:15:03.343Z,19.39
2019-04-14T08:16:03.122Z,19.35
2019-04-14T08:17:03.138Z,19.35
2019-04-14T08:18:03.115Z,19.39
2019-04-14T08:19:03.146Z,19.42
2019-04-14T08:20:03.232Z,19.43
2019-04-14T08:21:03.264Z,19.47
2019-04-14T08:22:03.543Z,19.43
2019-04-14T08:23:03.293Z,19.40
2019-04-14T08:24:03.305Z,19.45
2019-04-14T08:25:03.342Z,19.49
2019-04-14T08:26:03.423Z,19.47
2019-04-14T08:27:03.394Z,19.35
2019-04-14T08:28:03.473Z,19.43
2019-04-14T08:29:03.816Z,19.42
2019-04-14T08:30:03.537Z,19.50
2019-04-14T08:31:03.577Z,19.43
2019-04-14T08:32:03.608Z,19.45
2019-04-14T08:33:03.635Z,19.49
2019-04-14T08:34:03.667Z,19.55
2019-04-14T08:36:03.975Z,19.53
2019-04-14T08:37:03.712Z,19.47
2019-04-14T08:39:03.817Z,19.53
2019-04-14T08:40:03.799Z,19.55
2019-04-14T08:41:03.884Z,19.49
2019-04-14T08:42:03.935Z,19.55
2019-04-14T08:43:04.259Z,19.52
2019-04-14T08:44:03.982Z,19.58
2019-04-14T08:45:03.959Z,19.58
2019-04-14T08:46:03.987Z,19.64
2019-04-14T08:47:04.068Z,19.53
2019-04-14T08:48:04.095Z,19.65
2019-04-14T08:49:04.151Z,19.55
2019-04-14T08:50:04.411Z,19.49
2019-04-14T08:51:04.136Z,19.60
2019-04-14T08:52:04.186Z,19.58
2019-04-14T08:53:04.261Z,19.58
2019-04-14T08:54:04.288Z,19.65
2019-04-14T08:55:04.324Z,19.60
2019-04-14T08:56:04.343Z,19.62
2019-04-14T08:57:04.625Z,19.71
2019-04-14T08:59:04.440Z,19.67
2019-04-14T09:00:04.476Z,19.72
2019-04-14T09:01:04.453Z,19.75
2019-04-14T09:02:04.557Z,19.67
2019-04-14T09:03:04.564Z,19.70
2019-04-14T09:04:04.603Z,19.72
2019-04-14T09:05:04.627Z,19.75
2019-04-14T09:06:04.661Z,19.72
2019-04-14T09:07:04.688Z,19.76
2019-04-14T09:08:04.671Z,19.80
2019-04-14T09:09:07.255Z,19.78
2019-04-14T09:10:05.081Z,19.83
2019-04-14T09:12:14.813Z,19.75
2019-04-14T09:13:04.828Z,19.79
2019-04-14T09:14:04.907Z,19.80
2019-04-14T09:15:04.888Z,19.79
2019-04-14T09:16:05.268Z,19.78
2019-04-14T09:17:04.960Z,19.80
2019-04-14T09:19:07.853Z,19.86
2019-04-14T09:20:05.059Z,19.86
2019-04-14T09:21:05.133Z,19.86
2019-04-14T09:22:05.482Z,19.85
2019-04-14T09:23:05.207Z,19.80
2019-04-14T09:24:05.228Z,19.79
2019-04-14T09:25:05.287Z,19.80
2019-04-14T09:26:05.240Z,19.90
2019-04-14T09:27:05.312Z,19.87
2019-04-14T09:28:05.652Z,19.90
2019-04-14T09:29:05.373Z,19.86
2019-04-14T09:30:05.362Z,19.85
2019-04-14T09:31:05.399Z,19.92
2019-04-14T09:32:05.477Z,19.92
2019-04-14T09:33:05.509Z,19.87
2019-04-14T09:34:05.484Z,19.92
2019-04-14T09:35:05.512Z,19.92
2019-04-14T09:36:05.603Z,19.90
2019-04-14T09:37:05.581Z,19.92
2019-04-14T09:38:05.672Z,19.89
2019-04-14T09:39:05.696Z,19.92
2019-04-14T09:40:05.730Z,19.92
2019-04-14T09:41:06.014Z,19.87
2019-04-14T09:42:05.795Z,19.92
2019-04-14T09:43:05.769Z,19.98
2019-04-14T09:44:05.855Z,19.95
2019-04-14T09:45:05.886Z,19.94
2019-04-14T09:47:05.941Z,19.94
2019-04-14T09:48:06.230Z,20.00
2019-04-14T09:49:06.010Z,20.02
2019-04-14T09:50:06.045Z,20.07
2019-04-14T09:51:06.075Z,20.02
2019-04-14T09:52:06.112Z,20.05
2019-04-14T09:53:06.135Z,20.07
2019-04-14T09:54:06.181Z,20.04
2019-04-14T09:55:06.447Z,20.04
2019-04-14T09:56:06.239Z,20.00
2019-04-14T09:57:06.270Z,20.02
2019-04-14T09:58:06.294Z,20.10
2019-04-14T10:00:06.308Z,20.05
2019-04-14T10:01:09.028Z,20.04
2019-04-14T10:02:06.715Z,20.05
2019-04-14T10:03:06.468Z,20.13
2019-04-14T10:04:06.493Z,20.13
2019-04-14T10:05:06.517Z,20.15
2019-04-14T10:06:06.495Z,20.17
2019-04-14T10:07:06.590Z,20.19
2019-04-14T10:08:06.624Z,20.13
2019-04-14T10:09:06.939Z,20.19
2019-04-14T10:10:06.675Z,20.20
2019-04-14T10:11:06.702Z,20.23
2019-04-14T10:12:06.747Z,20.16
2019-04-14T10:13:06.768Z,20.16
2019-04-14T10:14:06.813Z,20.16
2019-04-14T10:15:06.879Z,20.19
2019-04-14T10:16:07.245Z,20.20
2019-04-14T10:17:06.898Z,20.16
2019-04-14T10:18:06.930Z,20.15
2019-04-14T10:19:06.957Z,20.15
2019-04-14T10:20:07.671Z,20.15
2019-04-14T10:21:17.236Z,20.20
2019-04-14T10:22:07.468Z,20.17
2019-04-14T10:23:07.838Z,20.22
2019-04-14T10:24:07.414Z,20.27
2019-04-14T10:25:07.421Z,20.30
2019-04-14T10:26:07.206Z,20.25
2019-04-14T10:27:07.212Z,20.22
2019-04-14T10:28:07.665Z,20.27
2019-04-14T10:29:07.231Z,20.22
2019-04-14T10:30:07.686Z,20.27
2019-04-14T10:31:07.340Z,20.25
2019-04-14T10:33:07.406Z,20.31
2019-04-14T10:34:09.839Z,20.27
2019-04-14T10:35:07.471Z,20.33
2019-04-14T10:36:07.501Z,20.30
2019-04-14T10:37:07.482Z,20.35
2019-04-14T10:39:07.616Z,20.31
2019-04-14T10:40:07.630Z,20.33
2019-04-14T10:41:07.612Z,20.31
2019-04-14T10:42:07.639Z,20.30
2019-04-14T10:43:07.674Z,20.25
2019-04-14T10:44:07.761Z,20.34
2019-04-14T10:45:07.784Z,20.33
2019-04-14T10:47:07.798Z,20.30
2019-04-14T10:48:07.827Z,20.35
2019-04-14T10:49:07.869Z,20.40
2019-04-14T10:50:07.945Z,20.38
2019-04-14T10:51:07.925Z,20.41
2019-04-14T10:52:08.009Z,20.41
2019-04-14T10:53:08.040Z,20.38
2019-04-14T10:54:08.322Z,20.40
2019-04-14T10:55:08.053Z,20.41
2019-04-14T10:56:08.139Z,20.40
2019-04-14T10:57:08.118Z,20.42
2019-04-14T10:58:08.196Z,20.34
2019-04-14T10:59:08.224Z,20.38
2019-04-14T11:00:08.212Z,20.40
2019-04-14T11:01:08.595Z,20.46
2019-04-14T11:02:08.331Z,20.44
2019-04-14T11:03:08.310Z,20.46
2019-04-14T11:04:08.484Z,20.41
2019-04-14T11:05:08.423Z,20.46
2019-04-14T11:06:08.402Z,20.44
2019-04-14T11:07:08.438Z,20.48
2019-04-14T11:08:08.469Z,20.50
2019-04-14T11:09:08.501Z,20.42
2019-04-14T11:10:08.580Z,20.50
2019-04-14T11:11:08.615Z,20.42
2019-04-14T11:12:08.644Z,20.46
2019-04-14T11:13:08.630Z,20.42
2019-04-14T11:14:08.955Z,20.54
2019-04-14T11:15:08.756Z,20.44
2019-04-14T11:16:08.779Z,20.50
2019-04-14T11:17:08.757Z,20.54
2019-04-14T11:18:08.785Z,20.56
2019-04-14T11:19:08.873Z,20.57
2019-04-14T11:20:08.848Z,20.58
2019-04-14T11:21:08.906Z,20.60
2019-04-14T11:22:08.966Z,20.56
2019-04-14T11:23:08.952Z,20.56
2019-04-14T11:24:09.028Z,20.60
2019-04-14T11:25:09.062Z,20.56
2019-04-14T11:26:09.105Z,20.54
2019-04-14T11:27:09.429Z,20.58
2019-04-14T11:28:09.190Z,20.58
2019-04-14T11:29:09.203Z,20.60
2019-04-14T11:30:09.224Z,20.57
2019-04-14T11:31:09.203Z,20.60
2019-04-14T11:32:09.296Z,20.60
2019-04-14T11:33:09.327Z,20.58
2019-04-14T11:34:09.349Z,20.58
2019-04-14T11:35:09.353Z,20.61
2019-04-14T11:37:09.412Z,20.56
2019-04-14T11:38:09.482Z,20.60
2019-04-14T11:39:09.521Z,20.64
2019-04-14T11:40:09.510Z,20.63
2019-04-14T11:42:09.559Z,20.72
2019-04-14T11:43:09.597Z,20.69
2019-04-14T11:44:09.677Z,20.71
2019-04-14T11:45:09.701Z,20.68
2019-04-14T11:46:09.706Z,20.73
2019-04-14T11:47:09.777Z,20.68
2019-04-14T11:48:09.758Z,20.69
2019-04-14T11:50:09.822Z,20.73
2019-04-14T11:51:10.152Z,20.76
2019-04-14T11:52:09.935Z,20.76
2019-04-14T11:53:09.977Z,20.82
2019-04-14T11:54:10.013Z,20.83
2019-04-14T11:55:09.991Z,20.81
2019-04-14T11:56:10.078Z,20.82
2019-04-14T11:57:10.059Z,20.78
2019-04-14T11:58:10.462Z,20.83
2019-04-14T11:59:10.166Z,20.82
2019-04-14T12:00:10.204Z,20.83
2019-04-14T12:01:10.224Z,20.81
2019-04-14T12:02:10.255Z,20.82
2019-04-14T12:03:10.247Z,20.83
2019-04-14T12:04:10.336Z,20.83
2019-04-14T12:05:10.352Z,20.90
2019-04-14T12:06:10.344Z,20.87
2019-04-14T12:07:10.374Z,20.85
2019-04-14T12:09:10.510Z,20.87
2019-04-14T12:10:10.471Z,20.88
2019-04-14T12:12:10.889Z,20.87
2019-04-14T12:14:10.654Z,20.94
2019-04-14T12:16:10.670Z,20.97
2019-04-14T12:17:10.749Z,20.93
2019-04-14T12:18:10.801Z,20.96
2019-04-14T12:19:10.762Z,21.00
2019-04-14T12:20:10.857Z,21.01
2019-04-14T12:21:10.827Z,20.93
2019-04-14T12:22:10.915Z,20.87
2019-04-14T12:23:10.903Z,20.88
2019-04-14T12:24:10.981Z,20.94
2019-04-14T12:25:10.961Z,20.91
2019-04-14T12:26:11.100Z,21.00
2019-04-14T12:27:11.080Z,20.97
2019-04-14T12:28:11.371Z,21.03
2019-04-14T12:29:11.829Z,20.97
2019-04-14T12:30:11.231Z,20.91
2019-04-14T12:31:11.462Z,20.96
2019-04-14T12:32:11.249Z,20.97
2019-04-14T12:33:11.306Z,21.00
2019-04-14T12:34:11.317Z,20.98
2019-04-14T12:35:11.345Z,20.97
2019-04-14T12:36:11.378Z,21.00
2019-04-14T12:37:11.660Z,21.00
2019-04-14T12:38:11.439Z,21.05
2019-04-14T12:39:11.478Z,21.08
2019-04-14T12:40:11.468Z,21.00
2019-04-14T12:41:12.593Z,21.05
2019-04-14T12:42:11.534Z,21.06
2019-04-14T12:43:11.563Z,21.03
2019-04-14T12:44:11.953Z,21.01
2019-04-14T12:45:11.678Z,21.03
2019-04-14T12:46:11.703Z,21.09
2019-04-14T12:47:11.706Z,21.01
2019-04-14T12:48:11.772Z,21.03
2019-04-14T12:49:11.806Z,21.12
2019-04-14T12:50:11.782Z,21.13
2019-04-14T12:51:12.167Z,21.18
2019-04-14T12:52:21.053Z,21.21
2019-04-14T12:53:11.941Z,21.19
2019-04-14T12:54:13.995Z,21.22
2019-04-14T12:55:12.013Z,21.18
2019-04-14T12:56:12.041Z,21.18
2019-04-14T12:57:12.068Z,21.19
2019-04-14T12:58:12.408Z,21.21
2019-04-14T12:59:12.089Z,21.18
2019-04-14T13:00:12.173Z,21.15
2019-04-14T13:01:12.155Z,21.26
2019-04-14T13:02:12.187Z,21.15
2019-04-14T13:03:12.276Z,21.15
2019-04-14T13:04:12.311Z,21.27
2019-04-14T13:05:12.294Z,21.31
2019-04-14T13:06:12.345Z,21.36
2019-04-14T13:07:12.353Z,21.36
2019-04-14T13:08:12.450Z,21.33
2019-04-14T13:09:14.557Z,21.27
2019-04-14T13:10:12.514Z,21.30
2019-04-14T13:11:12.840Z,21.34
2019-04-14T13:12:12.573Z,21.37
2019-04-14T13:13:12.608Z,21.42
2019-04-14T13:14:12.591Z,21.43
2019-04-14T13:15:12.687Z,21.42
2019-04-14T13:16:12.719Z,21.48
2019-04-14T13:17:12.743Z,21.59
2019-04-14T13:18:13.028Z,21.61
2019-04-14T13:19:12.769Z,21.56
2019-04-14T13:20:12.850Z,21.70
2019-04-14T13:21:12.879Z,21.56
2019-04-14T13:22:12.868Z,21.70
2019-04-14T13:23:12.955Z,21.64
2019-04-14T13:24:12.981Z,21.70
2019-04-14T13:25:13.280Z,21.71
2019-04-14T13:26:13.010Z,21.82
2019-04-14T13:27:13.046Z,21.83
2019-04-14T13:28:13.089Z,21.79
2019-04-14T13:29:13.114Z,21.91
2019-04-14T13:30:13.208Z,21.83
2019-04-14T13:31:13.178Z,21.90
2019-04-14T13:32:13.270Z,21.90
2019-04-14T13:33:13.251Z,21.91
2019-04-14T13:34:13.282Z,22.05
2019-04-14T13:35:13.371Z,22.02
2019-04-14T13:36:13.356Z,22.01
2019-04-14T13:37:13.455Z,22.01
2019-04-14T13:38:13.725Z,22.06
2019-04-14T13:39:13.475Z,22.12
2019-04-14T13:40:13.565Z,22.12
2019-04-14T13:41:13.581Z,22.27
2019-04-14T13:42:13.597Z,22.24
2019-04-14T13:43:13.609Z,22.24
2019-04-14T13:44:13.646Z,22.29
2019-04-14T13:45:13.727Z,22.24
2019-04-14T13:46:13.783Z,22.24
2019-04-14T13:47:13.753Z,22.44
2019-04-14T13:48:13.845Z,22.42
2019-04-14T13:49:13.821Z,22.42